Time;durP1;ratioP1;P1;durP2;ratioP2;P2;SDS_P1;SDS_P2;PMS_P1;PMS_P2;Temp;Humidity;BMP_temperature;BMP_pressure;BME280_temperature;BME280_humidity;BME280_pressure;Samples;Min_cycle;Max_cycle;Signal;HPM_P1;HPM_P2
2022/07/15 00:00:00;;;;;;;5.03;1.20;;;;;;;;;;5074575;28;20040;-82
2022/07/15 00:02:28;;;;;;;2.97;1.20;;;;;;;;;;5092578;28;20071;-83
2022/07/15 00:04:55;;;;;;;4.35;1.30;;;;;;;;;;5074490;28;20040;-83
2022/07/15 00:07:22;;;;;;;2.58;1.10;;;;;;;;;;5092324;28;20419;-83
2022/07/15 00:12:35;;;;;;;3.00;0.98;;;;;;;;;;5099264;28;20052;-83
2022/07/15 00:15:03;;;;;;;6.75;1.30;;;;;;;;;;5099063;28;20048;-82
2022/07/15 00:17:30;;;;;;;8.02;1.42;;;;;;;;;;5081140;28;20051;-82
2022/07/15 00:19:57;;;;;;;3.80;1.30;;;;;;;;;;5080852;28;20079;-82
2022/07/15 00:22:24;;;;;;;4.88;1.20;;;;;;;;;;5099121;28;20116;-82
2022/07/15 00:24:52;;;;;;;2.88;0.90;;;;;;;;;;5080855;28;20492;-83
2022/07/15 00:27:19;;;;;;;4.50;1.20;;;;;;;;;;5081223;28;20100;-82
2022/07/15 00:29:46;;;;;;;5.57;1.25;;;;;;;;;;5098988;28;20135;-83
2022/07/15 00:32:13;;;;;;;3.30;1.05;;;;;;;;;;5080232;28;20131;-83
2022/07/15 00:34:40;;;;;;;3.30;1.38;;;;;;;;;;5080535;28;20438;-82
2022/07/15 00:37:08;;;;;;;6.38;1.58;;;;;;;;;;5099094;28;20060;-83
2022/07/15 00:39:35;;;;;;;3.05;1.20;;;;;;;;;;5099156;28;20067;-83
2022/07/15 00:42:04;;;;;;;3.40;1.20;;;;;;;;;;5081098;28;20055;-83
2022/07/15 00:44:31;;;;;;;4.80;1.40;;;;;;;;;;5081264;28;20071;-83
2022/07/15 00:47:00;;;;;;;4.93;1.65;;;;;;;;;;5080943;28;20056;-83
2022/07/15 00:49:27;;;;;;;2.63;1.27;;;;;;;;;;5081115;28;20123;-82
2022/07/15 00:51:55;;;;;;;3.13;1.23;;;;;;;;;;5080724;28;20134;-82
2022/07/15 00:54:24;;;;;;;2.53;1.33;;;;;;;;;;5099095;28;20047;-83
2022/07/15 00:56:52;;;;;;;3.50;1.35;;;;;;;;;;5080962;28;20075;-83
2022/07/15 00:59:21;;;;;;;5.47;1.35;;;;;;;;;;5080997;28;20488;-82
2022/07/15 01:01:49;;;;;;;3.28;1.38;;;;;;;;;;5080628;28;20130;-82
2022/07/15 01:04:17;;;;;;;5.80;1.30;;;;;;;;;;5080893;28;20537;-82
2022/07/15 01:06:44;;;;;;;5.82;1.17;;;;;;;;;;5080879;28;20527;-83
2022/07/15 01:09:12;;;;;;;1.77;1.05;;;;;;;;;;5081143;28;20083;-82
2022/07/15 01:11:39;;;;;;;2.05;1.33;;;;;;;;;;5080933;28;20080;-82
2022/07/15 01:14:06;;;;;;;4.50;1.27;;;;;;;;;;5098463;28;20051;-82
2022/07/15 01:16:34;;;;;;;2.60;1.40;;;;;;;;;;5098753;28;20436;-83
2022/07/15 01:19:01;;;;;;;1.77;1.23;;;;;;;;;;5080736;28;20055;-82
2022/07/15 01:21:29;;;;;;;2.22;1.13;;;;;;;;;;5094933;28;20095;-84
2022/07/15 01:23:56;;;;;;;4.70;1.60;;;;;;;;;;5077444;28;20553;-83
2022/07/15 01:26:23;;;;;;;3.95;1.63;;;;;;;;;;5095459;28;20131;-83
2022/07/15 01:28:51;;;;;;;3.97;1.50;;;;;;;;;;5077195;28;20147;-82
2022/07/15 01:31:18;;;;;;;9.23;1.48;;;;;;;;;;5095035;28;20462;-82
2022/07/15 01:33:45;;;;;;;6.82;1.42;;;;;;;;;;5095234;28;20048;-82
2022/07/15 01:36:13;;;;;;;2.15;1.27;;;;;;;;;;5077625;28;20109;-83
2022/07/15 01:38:40;;;;;;;4.93;1.70;;;;;;;;;;5077552;28;20044;-83
2022/07/15 01:41:16;;;;;;;3.05;1.60;;;;;;;;;;5095072;28;20071;-82
2022/07/15 01:43:43;;;;;;;5.07;1.33;;;;;;;;;;5077254;28;20140;-82
2022/07/15 01:46:10;;;;;;;9.88;2.13;;;;;;;;;;5094907;28;20067;-82
2022/07/15 01:51:23;;;;;;;2.63;1.52;;;;;;;;;;5094893;28;20515;-82
2022/07/15 01:53:50;;;;;;;1.92;1.42;;;;;;;;;;5094846;28;20569;-82
2022/07/15 01:56:17;;;;;;;2.80;1.35;;;;;;;;;;5076989;28;20083;-82
2022/07/15 01:58:45;;;;;;;2.67;1.40;;;;;;;;;;5094875;28;20051;-82
2022/07/15 02:01:12;;;;;;;8.15;1.80;;;;;;;;;;5076779;28;20535;-83
2022/07/15 02:03:39;;;;;;;2.97;1.23;;;;;;;;;;5094733;28;20082;-82
2022/07/15 02:06:07;;;;;;;3.70;1.48;;;;;;;;;;5094252;28;20056;-82
2022/07/15 02:08:34;;;;;;;7.13;2.10;;;;;;;;;;5094430;28;20048;-82
2022/07/15 02:11:01;;;;;;;4.40;1.85;;;;;;;;;;5076494;28;20048;-83
2022/07/15 02:13:28;;;;;;;7.75;1.77;;;;;;;;;;5076442;28;20485;-82
2022/07/15 02:15:56;;;;;;;3.28;1.35;;;;;;;;;;5076402;28;20056;-82
2022/07/15 02:18:23;;;;;;;2.10;1.45;;;;;;;;;;5076212;28;20048;-82
2022/07/15 02:20:51;;;;;;;2.17;1.70;;;;;;;;;;5076024;28;20056;-82
2022/07/15 02:23:18;;;;;;;3.58;1.88;;;;;;;;;;5075864;28;20086;-82
2022/07/15 02:25:45;;;;;;;3.45;1.65;;;;;;;;;;5093889;28;20492;-82
2022/07/15 02:28:13;;;;;;;1.52;1.40;;;;;;;;;;5076266;28;20140;-83
2022/07/15 02:30:41;;;;;;;5.18;1.42;;;;;;;;;;5094087;28;20082;-85
2022/07/15 02:33:08;;;;;;;7.32;1.77;;;;;;;;;;5093177;28;20143;-84
2022/07/15 02:35:37;;;;;;;3.38;1.60;;;;;;;;;;5075559;28;20076;-84
2022/07/15 02:38:04;;;;;;;6.35;1.55;;;;;;;;;;5076008;28;20101;-82
2022/07/15 02:40:31;;;;;;;3.10;1.70;;;;;;;;;;5094078;28;20048;-82
2022/07/15 02:42:59;;;;;;;4.15;1.50;;;;;;;;;;5093701;28;20186;-82
2022/07/15 02:45:27;;;;;;;5.03;1.83;;;;;;;;;;5093887;28;20079;-82
2022/07/15 02:47:54;;;;;;;3.92;1.40;;;;;;;;;;5075617;28;20496;-82
2022/07/15 02:50:22;;;;;;;4.25;1.52;;;;;;;;;;5093806;28;20080;-83
2022/07/15 02:52:49;;;;;;;2.45;1.35;;;;;;;;;;5075366;28;20047;-83
2022/07/15 02:55:17;;;;;;;3.50;1.40;;;;;;;;;;5075467;28;20139;-82
2022/07/15 02:57:44;;;;;;;6.95;1.48;;;;;;;;;;5075762;28;20048;-82
2022/07/15 03:00:13;;;;;;;3.78;1.83;;;;;;;;;;5093630;28;20082;-82
2022/07/15 03:02:40;;;;;;;6.57;2.30;;;;;;;;;;5093323;28;20087;-82
2022/07/15 03:05:08;;;;;;;2.50;1.67;;;;;;;;;;5075624;28;20126;-82
2022/07/15 03:07:36;;;;;;;2.28;1.63;;;;;;;;;;5075766;28;20450;-83
2022/07/15 03:10:03;;;;;;;7.72;2.00;;;;;;;;;;5075627;28;20142;-82
2022/07/15 03:12:31;;;;;;;4.25;2.00;;;;;;;;;;5093391;28;20044;-82
2022/07/15 03:14:59;;;;;;;5.97;2.15;;;;;;;;;;5092952;28;20072;-82
2022/07/15 03:17:26;;;;;;;1.77;1.60;;;;;;;;;;5093373;28;20557;-82
2022/07/15 03:19:55;;;;;;;3.72;1.80;;;;;;;;;;5093240;28;20056;-82
2022/07/15 03:22:23;;;;;;;4.60;1.65;;;;;;;;;;5075287;28;20500;-82
2022/07/15 03:24:50;;;;;;;1.65;1.50;;;;;;;;;;5075092;28;20080;-83
2022/07/15 03:27:17;;;;;;;2.92;1.55;;;;;;;;;;5075125;28;20134;-82
2022/07/15 03:29:44;;;;;;;3.40;1.90;;;;;;;;;;5093169;28;20078;-82
2022/07/15 03:32:15;;;;;;;3.80;2.22;;;;;;;;;;5074952;28;20070;-82
2022/07/15 03:34:43;;;;;;;3.80;2.22;;;;;;;;;;5075190;28;20515;-83
2022/07/15 03:37:11;;;;;;;3.30;2.10;;;;;;;;;;5075138;28;20083;-82
2022/07/15 03:39:38;;;;;;;3.03;1.88;;;;;;;;;;5075213;28;20098;-82
2022/07/15 03:42:06;;;;;;;4.72;2.20;;;;;;;;;;5092904;28;20048;-82
2022/07/15 03:44:33;;;;;;;7.32;2.25;;;;;;;;;;5092197;28;20086;-82
2022/07/15 03:47:00;;;;;;;4.80;2.00;;;;;;;;;;5093081;28;20094;-82
2022/07/15 03:49:27;;;;;;;5.20;2.00;;;;;;;;;;5074999;28;20075;-82
2022/07/15 03:51:55;;;;;;;6.80;1.90;;;;;;;;;;5074642;28;20105;-82
2022/07/15 03:54:23;;;;;;;2.67;2.10;;;;;;;;;;5092441;28;20140;-83
2022/07/15 03:56:50;;;;;;;4.20;2.35;;;;;;;;;;5092572;28;20087;-82
2022/07/15 03:59:20;;;;;;;3.92;2.08;;;;;;;;;;5074978;28;20090;-82
2022/07/15 04:01:48;;;;;;;4.05;2.30;;;;;;;;;;5074910;28;20052;-83
2022/07/15 04:04:16;;;;;;;7.88;2.40;;;;;;;;;;5074621;28;20047;-82
2022/07/15 04:06:43;;;;;;;2.83;1.95;;;;;;;;;;5074493;28;20091;-83
2022/07/15 04:09:11;;;;;;;9.40;2.50;;;;;;;;;;5092506;28;20078;-83
2022/07/15 04:11:42;;;;;;;4.72;2.38;;;;;;;;;;5074579;28;20094;-84
2022/07/15 04:14:11;;;;;;;5.65;2.33;;;;;;;;;;5092376;28;20072;-82
2022/07/15 04:16:38;;;;;;;5.03;2.33;;;;;;;;;;5074613;28;20051;-83
2022/07/15 04:19:06;;;;;;;2.95;2.22;;;;;;;;;;5092443;28;20051;-84
2022/07/15 04:21:33;;;;;;;5.15;2.60;;;;;;;;;;5074412;28;20600;-82
2022/07/15 04:24:01;;;;;;;2.67;2.50;;;;;;;;;;5092032;28;20533;-83
2022/07/15 04:26:28;;;;;;;7.43;2.72;;;;;;;;;;5092232;28;20048;-83
2022/07/15 04:28:56;;;;;;;10.43;2.47;;;;;;;;;;5092351;28;20078;-84
2022/07/15 04:31:23;;;;;;;3.55;2.50;;;;;;;;;;5091994;28;20044;-84
2022/07/15 04:33:50;;;;;;;4.78;2.95;;;;;;;;;;5074497;28;20048;-83
2022/07/15 04:36:17;;;;;;;3.88;2.53;;;;;;;;;;5091996;28;20484;-84
2022/07/15 04:38:45;;;;;;;3.55;2.35;;;;;;;;;;5074351;28;20552;-84
2022/07/15 04:41:12;;;;;;;4.80;2.72;;;;;;;;;;5074464;28;20075;-84
2022/07/15 04:43:40;;;;;;;5.68;2.28;;;;;;;;;;5074311;28;20044;-84
2022/07/15 04:46:07;;;;;;;2.47;2.25;;;;;;;;;;5074475;28;20051;-83
2022/07/15 04:51:20;;;;;;;4.22;2.25;;;;;;;;;;5092086;28;20147;-84
2022/07/15 04:53:48;;;;;;;7.03;2.22;;;;;;;;;;5073974;28;20610;-83
2022/07/15 04:56:16;;;;;;;5.95;2.10;;;;;;;;;;5077319;28;20048;-84
2022/07/15 04:58:43;;;;;;;7.75;2.28;;;;;;;;;;5077924;28;20500;-84
2022/07/15 05:01:10;;;;;;;3.22;1.90;;;;;;;;;;5095715;28;20078;-83
2022/07/15 05:03:39;;;;;;;3.67;1.77;;;;;;;;;;5077881;28;20072;-83
2022/07/15 05:06:06;;;;;;;4.40;1.80;;;;;;;;;;5077552;28;20060;-83
2022/07/15 05:08:33;;;;;;;3.60;1.73;;;;;;;;;;5078046;28;20091;-84
2022/07/15 05:11:00;;;;;;;2.33;1.75;;;;;;;;;;5077745;28;20048;-84
2022/07/15 05:13:28;;;;;;;2.28;1.52;;;;;;;;;;5077506;28;20518;-84
2022/07/15 05:15:55;;;;;;;2.63;1.50;;;;;;;;;;5077274;28;20076;-84
2022/07/15 05:18:22;;;;;;;3.88;1.70;;;;;;;;;;5077707;28;20508;-84
2022/07/15 05:20:50;;;;;;;6.40;1.50;;;;;;;;;;5077708;28;20052;-84
2022/07/15 05:23:18;;;;;;;3.85;1.30;;;;;;;;;;5095493;28;20511;-84
2022/07/15 05:25:46;;;;;;;3.03;1.40;;;;;;;;;;5077444;28;20134;-84
2022/07/15 05:28:13;;;;;;;1.73;1.60;;;;;;;;;;5077076;28;20094;-83
2022/07/15 05:30:40;;;;;;;4.80;1.20;;;;;;;;;;5077177;28;20087;-84
2022/07/15 05:33:07;;;;;;;3.88;1.45;;;;;;;;;;5094680;28;20044;-83
2022/07/15 05:35:35;;;;;;;4.15;1.23;;;;;;;;;;5077320;28;20149;-84
2022/07/15 05:38:02;;;;;;;7.32;1.58;;;;;;;;;;5076186;28;20084;-83
2022/07/15 05:40:29;;;;;;;4.53;1.60;;;;;;;;;;5077485;28;20079;-85
2022/07/15 05:42:56;;;;;;;7.47;1.55;;;;;;;;;;5094785;28;20147;-84
2022/07/15 05:45:24;;;;;;;8.80;1.60;;;;;;;;;;5077081;28;20135;-84
2022/07/15 05:47:52;;;;;;;2.80;1.40;;;;;;;;;;5095157;28;20143;-84
2022/07/15 05:50:20;;;;;;;4.70;1.50;;;;;;;;;;5077368;28;20048;-85
2022/07/15 05:52:47;;;;;;;15.98;1.98;;;;;;;;;;5077055;28;20093;-85
2022/07/15 05:55:15;;;;;;;6.65;1.65;;;;;;;;;;5076821;28;20083;-86
2022/07/15 05:57:42;;;;;;;10.55;2.30;;;;;;;;;;5076610;28;20143;-84
2022/07/15 06:00:12;;;;;;;6.53;1.58;;;;;;;;;;5077669;28;20048;-85
2022/07/15 06:02:40;;;;;;;6.85;2.10;;;;;;;;;;5076869;28;20040;-84
2022/07/15 06:05:07;;;;;;;14.63;2.35;;;;;;;;;;5076999;28;20051;-85
2022/07/15 06:07:36;;;;;;;11.82;2.42;;;;;;;;;;5075994;28;20408;-85
2022/07/15 06:10:06;;;;;;;11.32;2.42;;;;;;;;;;5076850;28;20494;-85
2022/07/15 06:12:33;;;;;;;9.00;2.60;;;;;;;;;;5094715;28;20044;-85
2022/07/15 06:15:00;;;;;;;10.02;2.30;;;;;;;;;;5094421;28;20104;-84
2022/07/15 06:17:28;;;;;;;9.65;1.90;;;;;;;;;;5094794;28;20072;-85
2022/07/15 06:19:55;;;;;;;12.57;2.05;;;;;;;;;;5094407;28;20048;-85
2022/07/15 06:22:22;;;;;;;7.25;1.58;;;;;;;;;;5094230;28;20056;-85
2022/07/15 06:24:49;;;;;;;6.93;1.50;;;;;;;;;;5076311;28;20135;-85
2022/07/15 06:27:16;;;;;;;8.82;2.05;;;;;;;;;;5076573;28;20048;-85
2022/07/15 06:29:43;;;;;;;4.65;1.15;;;;;;;;;;5076830;28;20492;-85
2022/07/15 06:32:11;;;;;;;6.45;0.90;;;;;;;;;;5076232;28;20131;-85
2022/07/15 06:34:39;;;;;;;3.72;1.00;;;;;;;;;;5076416;28;20078;-85
2022/07/15 06:37:06;;;;;;;2.03;0.80;;;;;;;;;;5093872;28;20101;-84
2022/07/15 06:39:33;;;;;;;2.78;0.90;;;;;;;;;;5076287;28;20408;-85
2022/07/15 06:42:01;;;;;;;4.07;0.82;;;;;;;;;;5076399;28;20087;-85
2022/07/15 06:44:28;;;;;;;3.45;0.90;;;;;;;;;;5075968;28;20090;-85
2022/07/15 06:46:56;;;;;;;3.15;0.80;;;;;;;;;;5076115;28;20084;-86
2022/07/15 06:49:26;;;;;;;4.57;0.95;;;;;;;;;;5076431;28;20052;-84
2022/07/15 06:51:54;;;;;;;2.45;0.90;;;;;;;;;;5093301;28;20094;-85
2022/07/15 06:54:21;;;;;;;1.63;0.80;;;;;;;;;;5093650;28;20044;-85
2022/07/15 06:56:48;;;;;;;4.88;0.90;;;;;;;;;;5075918;28;20084;-84
2022/07/15 06:59:15;;;;;;;8.07;1.05;;;;;;;;;;5075720;28;20443;-85
2022/07/15 07:01:42;;;;;;;2.28;0.80;;;;;;;;;;5093601;28;20109;-84
2022/07/15 07:04:09;;;;;;;4.72;1.20;;;;;;;;;;5093366;28;20063;-85
2022/07/15 07:06:37;;;;;;;5.80;1.30;;;;;;;;;;5075743;28;20538;-85
2022/07/15 07:09:04;;;;;;;4.07;0.70;;;;;;;;;;5075558;28;20064;-85
2022/07/15 07:11:32;;;;;;;4.07;0.82;;;;;;;;;;5075822;28;20052;-85
2022/07/15 07:14:00;;;;;;;3.50;0.73;;;;;;;;;;5075400;28;20101;-85
2022/07/15 07:16:27;;;;;;;2.83;0.68;;;;;;;;;;5075041;28;20106;-85
2022/07/15 07:18:54;;;;;;;6.50;0.90;;;;;;;;;;5092265;28;20052;-85
2022/07/15 07:21:21;;;;;;;2.72;0.90;;;;;;;;;;5075462;28;20075;-85
2022/07/15 07:23:57;;;;;;;1.90;0.60;;;;;;;;;;5076207;28;20048;-84
2022/07/15 07:26:25;;;;;;;5.32;0.60;;;;;;;;;;5093501;28;20048;-85
2022/07/15 07:28:52;;;;;;;3.25;0.82;;;;;;;;;;5093266;28;20543;-84
2022/07/15 07:31:25;;;;;;;5.93;0.82;;;;;;;;;;5074820;28;20263;-86
2022/07/15 07:33:54;;;;;;;2.25;0.68;;;;;;;;;;5075313;28;20506;-85
2022/07/15 07:36:21;;;;;;;5.38;1.00;;;;;;;;;;5075404;28;20068;-86
2022/07/15 07:38:48;;;;;;;3.85;0.88;;;;;;;;;;5075239;28;20086;-85
2022/07/15 07:41:15;;;;;;;6.78;1.10;;;;;;;;;;5093055;28;20436;-84
2022/07/15 07:43:43;;;;;;;1.98;0.75;;;;;;;;;;5075359;28;20048;-90
2022/07/15 07:46:11;;;;;;;1.40;0.80;;;;;;;;;;5075325;28;20074;-85
2022/07/15 07:48:39;;;;;;;2.47;0.70;;;;;;;;;;5092861;28;20048;-85
2022/07/15 07:51:07;;;;;;;1.33;0.80;;;;;;;;;;5075573;28;20095;-88
2022/07/15 07:53:34;;;;;;;4.30;1.13;;;;;;;;;;5075415;28;20090;-85
2022/07/15 07:56:03;;;;;;;2.20;1.08;;;;;;;;;;5075125;28;20492;-87
2022/07/15 07:58:30;;;;;;;4.72;0.80;;;;;;;;;;5075285;28;20060;-88
2022/07/15 08:00:57;;;;;;;2.80;0.93;;;;;;;;;;5075108;28;20143;-86
2022/07/15 08:03:25;;;;;;;1.45;0.70;;;;;;;;;;5074965;28;20153;-86
2022/07/15 08:05:53;;;;;;;5.78;1.10;;;;;;;;;;5074805;28;20068;-85
2022/07/15 08:08:21;;;;;;;4.10;1.00;;;;;;;;;;5074938;28;20438;-86
2022/07/15 08:10:49;;;;;;;3.28;1.00;;;;;;;;;;5092454;28;20520;-85
2022/07/15 08:13:17;;;;;;;4.13;0.80;;;;;;;;;;5075069;28;20044;-85
2022/07/15 08:15:45;;;;;;;2.72;0.70;;;;;;;;;;5075111;28;20075;-85
2022/07/15 08:18:12;;;;;;;2.35;0.70;;;;;;;;;;5075156;28;20080;-85
2022/07/15 08:20:40;;;;;;;2.53;0.80;;;;;;;;;;5075284;28;20086;-85
2022/07/15 08:23:07;;;;;;;7.90;1.23;;;;;;;;;;5074527;28;20453;-86
2022/07/15 08:25:36;;;;;;;3.95;0.90;;;;;;;;;;5075028;28;20544;-85
2022/07/15 08:28:03;;;;;;;3.85;1.15;;;;;;;;;;5074814;28;20044;-86
2022/07/15 08:30:33;;;;;;;4.43;0.80;;;;;;;;;;5077484;28;20093;-86
2022/07/15 08:33:01;;;;;;;3.70;1.02;;;;;;;;;;5078813;28;20052;-85
2022/07/15 08:35:28;;;;;;;2.95;1.38;;;;;;;;;;5096598;28;20063;-86
2022/07/15 08:37:56;;;;;;;6.32;1.13;;;;;;;;;;5078751;28;20044;-86
2022/07/15 08:40:24;;;;;;;5.00;1.25;;;;;;;;;;5096721;28;20079;-85
2022/07/15 08:42:51;;;;;;;2.33;1.20;;;;;;;;;;5096626;28;20048;-86
2022/07/15 08:45:19;;;;;;;6.38;1.00;;;;;;;;;;5096881;28;20047;-86
2022/07/15 08:47:46;;;;;;;3.38;1.00;;;;;;;;;;5078695;28;20097;-85
2022/07/15 08:50:22;;;;;;;4.40;1.13;;;;;;;;;;5096118;28;20044;-85
2022/07/15 08:52:51;;;;;;;6.70;1.25;;;;;;;;;;5096256;28;20511;-87
2022/07/15 08:55:19;;;;;;;3.50;1.17;;;;;;;;;;5078935;28;20044;-84
2022/07/15 08:57:47;;;;;;;4.68;1.30;;;;;;;;;;5096613;28;20044;-85
2022/07/15 09:00:16;;;;;;;4.47;1.17;;;;;;;;;;5096982;28;20060;-86
2022/07/15 09:02:44;;;;;;;2.15;1.00;;;;;;;;;;5078458;28;20040;-85
2022/07/15 09:05:33;;;;;;;1.20;0.90;;;;;;;;;;5078497;28;20143;-87
2022/07/15 09:08:00;;;;;;;6.68;1.35;;;;;;;;;;5078806;28;20109;-87
2022/07/15 09:10:47;;;;;;;3.10;0.80;;;;;;;;;;5078822;28;20044;-87
2022/07/15 09:13:25;;;;;;;4.97;1.08;;;;;;;;;;5078375;28;20128;-84
2022/07/15 09:15:54;;;;;;;1.98;1.00;;;;;;;;;;5078617;28;20094;-87
2022/07/15 09:18:33;;;;;;;2.88;0.90;;;;;;;;;;5078605;28;20086;-86
2022/07/15 09:21:01;;;;;;;2.08;1.02;;;;;;;;;;5096250;28;20058;-87
2022/07/15 09:23:29;;;;;;;1.77;0.80;;;;;;;;;;5078193;28;20048;-85
2022/07/15 09:25:58;;;;;;;3.00;0.85;;;;;;;;;;5095850;28;20079;-87
2022/07/15 09:28:39;;;;;;;1.60;0.88;;;;;;;;;;5096228;28;20068;-84
2022/07/15 09:33:58;;;;;;;5.90;1.20;;;;;;;;;;5095934;28;20071;-86
2022/07/15 09:36:27;;;;;;;3.45;1.10;;;;;;;;;;5078026;28;20075;-84
2022/07/15 09:38:59;;;;;;;1.55;1.27;;;;;;;;;;5078183;28;20052;-87
2022/07/15 09:41:32;;;;;;;5.30;1.02;;;;;;;;;;5077243;28;20079;-85
2022/07/15 09:44:06;;;;;;;4.10;1.17;;;;;;;;;;5077694;28;20477;-87
2022/07/15 09:46:33;;;;;;;;;;;;;;;;;;5078052;28;20052;-89
2022/07/15 09:49:00;;;;;;;4.28;1.00;;;;;;;;;;5077955;28;19931;-86
2022/07/15 09:51:27;;;;;;;2.30;0.90;;;;;;;;;;5078053;28;20055;-87
2022/07/15 09:53:54;;;;;;;2.17;1.00;;;;;;;;;;5077760;28;20075;-87
2022/07/15 09:56:27;;;;;;;2.35;1.00;;;;;;;;;;5095485;28;20051;-87
2022/07/15 09:58:55;;;;;;;4.65;0.73;;;;;;;;;;5095567;28;20433;-87
2022/07/15 10:01:22;;;;;;;1.95;0.82;;;;;;;;;;5077641;28;20476;-86
2022/07/15 10:03:50;;;;;;;3.70;0.82;;;;;;;;;;5077457;28;20051;-88
2022/07/15 10:06:17;;;;;;;4.38;1.15;;;;;;;;;;5077733;28;20079;-86
2022/07/15 10:08:46;;;;;;;2.70;1.08;;;;;;;;;;5077893;28;20062;-86
2022/07/15 10:11:14;;;;;;;1.73;0.80;;;;;;;;;;5077446;28;20055;-86
2022/07/15 10:13:59;;;;;;;3.33;1.10;;;;;;;;;;5095101;28;20492;-87
2022/07/15 10:16:27;;;;;;;1.52;0.77;;;;;;;;;;5095468;28;20503;-85
2022/07/15 10:19:01;;;;;;;2.28;0.80;;;;;;;;;;5094998;28;20496;-87
2022/07/15 10:21:36;;;;;;;2.58;0.95;;;;;;;;;;5095132;28;20496;-87
2022/07/15 10:24:11;;;;;;;3.58;0.98;;;;;;;;;;5077164;28;20510;-87
2022/07/15 10:26:44;;;;;;;6.80;1.23;;;;;;;;;;5095018;28;20071;-88
2022/07/15 10:29:12;;;;;;;;;;;;;;;;;;5095437;28;20102;-89
2022/07/15 10:31:40;;;;;;;3.83;0.93;;;;;;;;;;5076978;28;20368;-87
2022/07/15 10:34:10;;;;;;;2.28;0.80;;;;;;;;;;5094667;28;20546;-87
2022/07/15 10:36:46;;;;;;;2.78;0.90;;;;;;;;;;5077146;28;20131;-86
2022/07/15 10:39:17;;;;;;;2.85;1.00;;;;;;;;;;5077399;28;20051;-87
2022/07/15 10:41:56;;;;;;;1.25;0.80;;;;;;;;;;5094779;28;20458;-87
2022/07/15 10:44:24;;;;;;;2.03;0.90;;;;;;;;;;5094434;28;20052;-83
2022/07/15 10:47:10;;;;;;;3.28;0.80;;;;;;;;;;5076691;28;20048;-87
2022/07/15 10:49:38;;;;;;;1.55;0.90;;;;;;;;;;5076800;28;20087;-87
2022/07/15 10:52:14;;;;;;;5.70;1.00;;;;;;;;;;5077524;28;20058;-85
2022/07/15 10:54:43;;;;;;;3.20;1.00;;;;;;;;;;5076283;28;20044;-87
2022/07/15 10:57:12;;;;;;;1.65;0.93;;;;;;;;;;5076656;28;20071;-87
2022/07/15 10:59:47;;;;;;;1.25;0.70;;;;;;;;;;5076453;28;20044;-89
2022/07/15 11:02:16;;;;;;;4.10;0.85;;;;;;;;;;5094863;28;20098;-88
2022/07/15 11:04:44;;;;;;;1.88;1.10;;;;;;;;;;5076293;28;20070;-85
2022/07/15 11:07:14;;;;;;;3.58;0.82;;;;;;;;;;5094328;28;20464;-88
2022/07/15 11:09:49;;;;;;;2.78;1.00;;;;;;;;;;5094310;28;20123;-86
2022/07/15 11:12:17;;;;;;;6.55;1.10;;;;;;;;;;5076521;28;20048;-85
2022/07/15 11:14:54;;;;;;;3.80;1.10;;;;;;;;;;5094236;28;20468;-87
2022/07/15 11:17:25;;;;;;;2.00;1.00;;;;;;;;;;5076393;28;20044;-86
2022/07/15 11:19:54;;;;;;;3.63;0.93;;;;;;;;;;5076190;28;20079;-88
2022/07/15 11:22:21;;;;;;;1.17;0.70;;;;;;;;;;5076076;28;20040;-90
2022/07/15 11:24:49;;;;;;;1.00;0.90;;;;;;;;;;5076065;28;20457;-87
2022/07/15 11:27:16;;;;;;;2.17;1.05;;;;;;;;;;5076207;28;20079;-87
2022/07/15 11:29:45;;;;;;;1.33;0.80;;;;;;;;;;5076218;28;20411;-87
2022/07/15 11:32:12;;;;;;;6.35;1.08;;;;;;;;;;5075792;28;20412;-87
2022/07/15 11:34:47;;;;;;;2.28;1.20;;;;;;;;;;5076080;28;20055;-87
2022/07/15 11:37:18;;;;;;;6.43;1.10;;;;;;;;;;5076089;28;20404;-86
2022/07/15 11:39:46;;;;;;;3.17;0.90;;;;;;;;;;5076126;28;20048;-83
2022/07/15 11:45:08;;;;;;;2.00;1.00;;;;;;;;;;5093859;28;20044;-87
2022/07/15 11:47:36;;;;;;;3.05;0.90;;;;;;;;;;5075785;28;20132;-88
2022/07/15 11:50:04;;;;;;;1.25;0.95;;;;;;;;;;5076077;28;20109;-87
2022/07/15 11:52:32;;;;;;;1.73;0.80;;;;;;;;;;5075851;28;20074;-87
2022/07/15 11:54:59;;;;;;;4.65;0.82;;;;;;;;;;5075890;28;20135;-89
2022/07/15 11:57:32;;;;;;;2.10;1.13;;;;;;;;;;5093938;28;20122;-89
2022/07/15 11:59:59;;;;;;;4.65;1.10;;;;;;;;;;5093701;28;20488;-89
2022/07/15 12:02:27;;;;;;;1.70;0.93;;;;;;;;;;5075681;28;20075;-87
2022/07/15 12:05:02;;;;;;;3.13;1.00;;;;;;;;;;5074885;28;20976;-87
2022/07/15 12:07:39;;;;;;;1.65;1.00;;;;;;;;;;5093502;28;20056;-87
2022/07/15 12:10:07;;;;;;;3.05;1.00;;;;;;;;;;5093582;28;20052;-87
2022/07/15 12:12:42;;;;;;;4.55;1.10;;;;;;;;;;5075916;28;20583;-88
2022/07/15 12:15:10;;;;;;;3.47;1.00;;;;;;;;;;5075584;28;20135;-89
2022/07/15 12:17:37;;;;;;;3.15;1.05;;;;;;;;;;5075870;28;20059;-89
2022/07/15 12:20:06;;;;;;;3.30;1.05;;;;;;;;;;5075862;28;20052;-92
2022/07/15 12:22:33;;;;;;;7.25;1.00;;;;;;;;;;5076279;28;20462;-91
2022/07/15 12:25:01;;;;;;;8.27;1.45;;;;;;;;;;5075789;28;20568;-85
2022/07/15 12:27:35;;;;;;;1.55;0.90;;;;;;;;;;5093238;28;20091;-88
2022/07/15 12:30:06;;;;;;;4.63;1.30;;;;;;;;;;5075636;28;20156;-87
2022/07/15 12:32:36;;;;;;;1.60;0.80;;;;;;;;;;5093005;28;20101;-89
2022/07/15 12:35:05;;;;;;;1.27;0.85;;;;;;;;;;5075560;28;20047;-88
2022/07/15 12:37:32;;;;;;;4.78;0.95;;;;;;;;;;5075285;28;20070;-90
2022/07/15 12:40:06;;;;;;;14.05;2.58;;;;;;;;;;5075484;28;20048;-89
2022/07/15 12:42:38;;;;;;;3.22;0.98;;;;;;;;;;5093498;28;20090;-92
2022/07/15 12:45:10;;;;;;;1.80;0.80;;;;;;;;;;5075136;28;20633;-89
2022/07/15 12:48:00;;;;;;;1.02;0.70;;;;;;;;;;5075826;28;20443;-88
2022/07/15 12:50:28;;;;;;;11.35;1.80;;;;;;;;;;5075429;28;20098;-89
2022/07/15 12:52:56;;;;;;;2.80;1.05;;;;;;;;;;5075220;28;20129;-88
2022/07/15 12:55:24;;;;;;;3.47;1.27;;;;;;;;;;5075348;28;20087;-88
2022/07/15 12:57:52;;;;;;;4.78;1.33;;;;;;;;;;5076211;28;20118;-90
2022/07/15 13:00:21;;;;;;;2.10;1.00;;;;;;;;;;5075853;28;20083;-90
2022/07/15 13:03:03;;;;;;;3.63;1.25;;;;;;;;;;5075405;28;20076;-89
2022/07/15 13:05:32;;;;;;;9.13;2.20;;;;;;;;;;5075561;28;20452;-88
2022/07/15 13:08:00;;;;;;;47.78;4.80;;;;;;;;;;5075184;28;20074;-89
2022/07/15 13:10:28;;;;;;;9.70;1.50;;;;;;;;;;5093168;28;20048;-90
2022/07/15 13:12:55;;;;;;;2.33;1.15;;;;;;;;;;5093024;28;20072;-88
2022/07/15 13:15:22;;;;;;;2.88;1.25;;;;;;;;;;5075477;28;20097;-90
2022/07/15 13:17:50;;;;;;;9.85;1.35;;;;;;;;;;5078984;28;20044;-96
2022/07/15 13:20:18;;;;;;;1.83;1.20;;;;;;;;;;5079245;28;20052;-90
2022/07/15 13:22:45;;;;;;;1.42;0.80;;;;;;;;;;5078859;28;20238;-89
2022/07/15 13:25:13;;;;;;;2.42;0.85;;;;;;;;;;5078462;28;20055;-91
2022/07/15 13:27:40;;;;;;;1.38;1.20;;;;;;;;;;5078665;28;20079;-87
2022/07/15 13:30:08;;;;;;;5.00;1.10;;;;;;;;;;5078653;28;20080;-89
2022/07/15 13:32:35;;;;;;;3.38;1.05;;;;;;;;;;5078379;28;20044;-91
2022/07/15 13:35:03;;;;;;;1.10;1.00;;;;;;;;;;5078480;28;20047;-89
2022/07/15 13:37:30;;;;;;;5.50;1.08;;;;;;;;;;5079017;28;20462;-89
2022/07/15 13:39:57;;;;;;;3.65;1.10;;;;;;;;;;5078568;28;20468;-89
2022/07/15 13:42:24;;;;;;;1.33;0.68;;;;;;;;;;5078962;28;20051;-90
2022/07/15 13:44:52;;;;;;;2.25;1.33;;;;;;;;;;5077983;28;20068;-91
2022/07/15 13:47:20;;;;;;;6.18;1.35;;;;;;;;;;5078527;28;20488;-93
2022/07/15 13:52:33;;;;;;;3.65;1.15;;;;;;;;;;5095675;28;20055;-92
2022/07/15 13:55:00;;;;;;;3.08;1.15;;;;;;;;;;5078208;28;20140;-89
2022/07/15 13:57:27;;;;;;;4.80;1.15;;;;;;;;;;5078298;28;20051;-91
2022/07/15 13:59:54;;;;;;;1.58;1.23;;;;;;;;;;5078394;28;20130;-89
2022/07/15 14:02:22;;;;;;;2.35;0.93;;;;;;;;;;5078234;28;20480;-90
2022/07/15 14:04:49;;;;;;;1.88;0.98;;;;;;;;;;5077780;28;20070;-90
2022/07/15 14:07:17;;;;;;;3.97;0.85;;;;;;;;;;5078071;28;20072;-92
2022/07/15 14:09:44;;;;;;;1.10;1.00;;;;;;;;;;5077978;28;20051;-91
2022/07/15 14:12:12;;;;;;;5.10;1.23;;;;;;;;;;5078292;28;20047;-90
2022/07/15 14:14:39;;;;;;;4.90;1.48;;;;;;;;;;5078039;28;20052;-90
2022/07/15 14:17:06;;;;;;;3.05;0.90;;;;;;;;;;5077826;28;20461;-90
2022/07/15 14:19:33;;;;;;;2.30;1.00;;;;;;;;;;5077674;28;20079;-88
2022/07/15 14:22:01;;;;;;;2.70;1.15;;;;;;;;;;5077633;28;20076;-90
2022/07/15 14:24:28;;;;;;;2.13;0.90;;;;;;;;;;5077452;28;20094;-87
2022/07/15 14:26:55;;;;;;;2.92;1.00;;;;;;;;;;5095586;28;20060;-88
2022/07/15 14:29:30;;;;;;;3.40;0.90;;;;;;;;;;5078416;28;20048;-91
2022/07/15 14:31:57;;;;;;;1.70;0.90;;;;;;;;;;5077023;28;20500;-92
2022/07/15 14:34:28;;;;;;;1.00;0.90;;;;;;;;;;5077727;28;20149;-92
2022/07/15 14:36:55;;;;;;;1.40;1.10;;;;;;;;;;5077978;28;20075;-90
2022/07/15 14:39:42;;;;;;;1.48;1.13;;;;;;;;;;5080411;28;20048;-89
2022/07/15 14:42:09;;;;;;;1.10;0.95;;;;;;;;;;5077364;28;20113;-90
2022/07/15 14:44:36;;;;;;;2.47;1.02;;;;;;;;;;5077197;28;20489;-92
2022/07/15 14:47:03;;;;;;;2.28;1.10;;;;;;;;;;5077346;28;20080;-90
2022/07/15 14:49:31;;;;;;;2.25;0.90;;;;;;;;;;5077420;28;20491;-91
2022/07/15 14:51:58;;;;;;;2.63;0.93;;;;;;;;;;5076836;28;20079;-90
2022/07/15 14:54:25;;;;;;;3.35;1.20;;;;;;;;;;5077260;28;20044;-89
2022/07/15 14:56:52;;;;;;;6.00;1.02;;;;;;;;;;5076978;28;20147;-89
2022/07/15 14:59:19;;;;;;;2.47;1.23;;;;;;;;;;5076992;28;20078;-89
2022/07/15 15:01:46;;;;;;;3.95;1.10;;;;;;;;;;5076911;28;20048;-89
2022/07/15 15:04:14;;;;;;;3.10;1.30;;;;;;;;;;5076935;28;20076;-89
2022/07/15 15:06:41;;;;;;;1.75;0.95;;;;;;;;;;5076544;28;20074;-89